Time;durP1;ratioP1;P1;durP2;ratioP2;P2;SDS_P1;SDS_P2;PMS_P1;PMS_P2;Temp;Humidity;BMP_temperature;BMP_pressure;BME280_temperature;BME280_humidity;BME280_pressure;Samples;Min_cycle;Max_cycle;Signal;HPM_P1;HPM_P2
2021/05/02 00:02:10;;;;;;;14.70;6.38;;;;;;;;;;10338515;28;20048;-58
2021/05/02 00:07:09;;;;;;;15.20;7.15;;;;;;;;;;10336414;28;20087;-55
2021/05/02 00:12:08;;;;;;;18.45;9.07;;;;;;;;;;10339260;28;20087;-59
2021/05/02 00:17:06;;;;;;;14.52;8.13;;;;;;;;;;10338812;28;20098;-58
2021/05/02 00:22:09;;;;;;;11.00;6.90;;;;;;;;;;10336581;28;20049;-57
2021/05/02 00:27:07;;;;;;;15.82;7.18;;;;;;;;;;10338366;28;20044;-58
2021/05/02 00:32:06;;;;;;;12.98;6.90;;;;;;;;;;10338005;28;20059;-59
2021/05/02 00:37:04;;;;;;;13.98;7.10;;;;;;;;;;10339007;28;20071;-58
2021/05/02 00:42:04;;;;;;;13.38;7.55;;;;;;;;;;10337014;28;20063;-59
2021/05/02 00:47:08;;;;;;;15.43;7.72;;;;;;;;;;10317153;28;20087;-59
2021/05/02 00:52:11;;;;;;;17.25;7.68;;;;;;;;;;10336985;28;20068;-59
2021/05/02 00:57:15;;;;;;;19.60;6.68;;;;;;;;;;10337631;28;20091;-58
2021/05/02 01:02:14;;;;;;;11.67;6.70;;;;;;;;;;10337537;28;20072;-60
2021/05/02 01:07:17;;;;;;;13.93;6.80;;;;;;;;;;10337384;28;20492;-59
2021/05/02 01:12:15;;;;;;;13.32;6.43;;;;;;;;;;10337350;28;20476;-59
2021/05/02 01:17:14;;;;;;;13.68;6.30;;;;;;;;;;10337175;28;20076;-59
2021/05/02 01:22:14;;;;;;;12.25;7.10;;;;;;;;;;10336662;28;20063;-59
2021/05/02 01:27:17;;;;;;;13.43;6.72;;;;;;;;;;10337159;28;20051;-59
2021/05/02 01:32:14;;;;;;;16.42;7.28;;;;;;;;;;10335758;28;20064;-59
2021/05/02 01:37:12;;;;;;;17.30;6.63;;;;;;;;;;10336012;28;20072;-59
2021/05/02 01:42:10;;;;;;;13.73;5.68;;;;;;;;;;10335407;28;20053;-59
2021/05/02 01:47:10;;;;;;;13.45;6.13;;;;;;;;;;10337319;28;20474;-55
2021/05/02 01:52:09;;;;;;;10.60;5.72;;;;;;;;;;10333978;28;20711;-59
2021/05/02 01:57:07;;;;;;;13.50;5.90;;;;;;;;;;10336613;28;20454;-58
2021/05/02 02:02:06;;;;;;;21.95;5.88;;;;;;;;;;10334827;28;20048;-59
2021/05/02 02:07:06;;;;;;;16.23;6.50;;;;;;;;;;10335335;28;20060;-58
2021/05/02 02:12:04;;;;;;;11.85;5.88;;;;;;;;;;10334618;28;20044;-56
2021/05/02 02:17:02;;;;;;;14.68;5.78;;;;;;;;;;10333942;28;20155;-57
2021/05/02 02:22:00;;;;;;;11.88;4.63;;;;;;;;;;10335684;28;20064;-58
2021/05/02 02:27:02;;;;;;;13.75;5.95;;;;;;;;;;10334773;28;20043;-59
2021/05/02 02:32:04;;;;;;;10.73;4.65;;;;;;;;;;10335586;28;20051;-55
2021/05/02 02:37:01;;;;;;;12.98;4.63;;;;;;;;;;10335204;28;20441;-57
2021/05/02 02:42:01;;;;;;;7.15;4.05;;;;;;;;;;10335695;28;20051;-59
2021/05/02 02:47:00;;;;;;;12.32;5.40;;;;;;;;;;10341573;28;20067;-58
2021/05/02 02:51:58;;;;;;;9.73;4.80;;;;;;;;;;10343067;28;20044;-59
2021/05/02 02:56:57;;;;;;;10.82;5.22;;;;;;;;;;10340736;28;20091;-58
2021/05/02 03:01:55;;;;;;;15.73;5.97;;;;;;;;;;10341154;28;20044;-58
2021/05/02 03:06:53;;;;;;;11.10;5.03;;;;;;;;;;10342437;28;20413;-58
2021/05/02 03:11:51;;;;;;;13.63;4.85;;;;;;;;;;10340897;28;20097;-58
2021/05/02 03:16:49;;;;;;;14.45;4.72;;;;;;;;;;10341183;28;20509;-58
2021/05/02 03:21:51;;;;;;;10.95;4.85;;;;;;;;;;10341195;28;20068;-58
2021/05/02 03:26:48;;;;;;;12.57;4.75;;;;;;;;;;10340974;28;20036;-58
2021/05/02 03:31:48;;;;;;;9.77;4.45;;;;;;;;;;10341130;28;20040;-58
2021/05/02 03:36:49;;;;;;;10.27;5.53;;;;;;;;;;10339799;28;20167;-58
2021/05/02 03:41:47;;;;;;;14.32;5.30;;;;;;;;;;10340879;28;20051;-57
2021/05/02 03:46:44;;;;;;;13.00;4.63;;;;;;;;;;10339014;28;20048;-57
2021/05/02 03:51:42;;;;;;;11.57;5.13;;;;;;;;;;10340773;28;20114;-58
2021/05/02 03:56:40;;;;;;;12.52;5.70;;;;;;;;;;10337663;28;20091;-57
2021/05/02 04:01:42;;;;;;;10.55;4.68;;;;;;;;;;10340179;28;20040;-58
2021/05/02 04:06:40;;;;;;;12.23;5.03;;;;;;;;;;10337330;28;20048;-58
2021/05/02 04:11:38;;;;;;;15.27;5.45;;;;;;;;;;10339665;28;20037;-59
2021/05/02 04:16:35;;;;;;;11.57;5.25;;;;;;;;;;10338787;28;20079;-59
2021/05/02 04:21:34;;;;;;;12.55;5.03;;;;;;;;;;10337622;28;20048;-59
2021/05/02 04:26:33;;;;;;;10.82;4.38;;;;;;;;;;10338841;28;20515;-58
2021/05/02 04:31:30;;;;;;;10.13;5.00;;;;;;;;;;10337156;28;20040;-59
2021/05/02 04:36:27;;;;;;;13.20;4.38;;;;;;;;;;10338250;28;20091;-58
2021/05/02 04:41:26;;;;;;;12.43;4.82;;;;;;;;;;10336832;28;20044;-58
2021/05/02 04:46:24;;;;;;;14.32;5.72;;;;;;;;;;10338386;28;20041;-58
2021/05/02 04:51:21;;;;;;;9.85;4.55;;;;;;;;;;10337349;28;20064;-59
2021/05/02 04:56:19;;;;;;;11.05;5.15;;;;;;;;;;10337096;28;20181;-59
2021/05/02 05:01:17;;;;;;;12.02;5.63;;;;;;;;;;10338041;28;20054;-59
2021/05/02 05:06:14;;;;;;;16.90;5.70;;;;;;;;;;10335485;28;20044;-59
2021/05/02 05:11:12;;;;;;;9.05;5.05;;;;;;;;;;10338277;28;20064;-59
2021/05/02 05:16:09;;;;;;;11.20;5.22;;;;;;;;;;10335861;28;20067;-58
2021/05/02 05:21:07;;;;;;;12.73;4.78;;;;;;;;;;10337251;28;20079;-59
2021/05/02 05:26:05;;;;;;;6.57;4.18;;;;;;;;;;10336492;28;20404;-59
2021/05/02 05:31:02;;;;;;;8.02;4.43;;;;;;;;;;10336176;28;20056;-59
2021/05/02 05:35:59;;;;;;;13.07;4.43;;;;;;;;;;10337174;28;20501;-59
2021/05/02 05:40:58;;;;;;;10.90;4.20;;;;;;;;;;10335335;28;20063;-59
2021/05/02 05:45:55;;;;;;;14.02;5.13;;;;;;;;;;10335318;28;20375;-57
2021/05/02 05:50:52;;;;;;;11.35;4.82;;;;;;;;;;10336773;28;20525;-58
2021/05/02 05:55:50;;;;;;;19.25;5.90;;;;;;;;;;10335661;28;20067;-60
2021/05/02 06:00:48;;;;;;;11.82;5.18;;;;;;;;;;10335551;28;20047;-59
2021/05/02 06:05:45;;;;;;;19.88;6.20;;;;;;;;;;10336253;28;20051;-58
2021/05/02 06:10:44;;;;;;;11.57;4.93;;;;;;;;;;10334674;28;20044;-57
2021/05/02 06:15:42;;;;;;;8.43;3.63;;;;;;;;;;10331872;28;20084;-57
2021/05/02 06:20:40;;;;;;;12.27;4.65;;;;;;;;;;10339538;28;20063;-58
2021/05/02 06:25:38;;;;;;;10.57;4.75;;;;;;;;;;10341871;28;20059;-59
2021/05/02 06:30:35;;;;;;;19.00;6.05;;;;;;;;;;10342108;28;20069;-59
2021/05/02 06:35:33;;;;;;;16.35;5.18;;;;;;;;;;10342533;28;20055;-58
2021/05/02 06:40:32;;;;;;;12.60;4.82;;;;;;;;;;10342989;28;20044;-59
2021/05/02 06:45:29;;;;;;;20.85;7.07;;;;;;;;;;10341977;28;20044;-60
2021/05/02 06:50:27;;;;;;;17.83;7.72;;;;;;;;;;10343126;28;20063;-58
2021/05/02 06:55:24;;;;;;;14.50;6.03;;;;;;;;;;10341120;28;20078;-59
2021/05/02 07:00:23;;;;;;;13.27;6.20;;;;;;;;;;10343302;28;20048;-59
2021/05/02 07:05:20;;;;;;;14.43;6.97;;;;;;;;;;10341109;28;20059;-59
2021/05/02 07:10:17;;;;;;;17.88;9.20;;;;;;;;;;10341687;28;20400;-59
2021/05/02 07:15:15;;;;;;;22.02;15.63;;;;;;;;;;10341539;28;20047;-58
2021/05/02 07:20:15;;;;;;;20.73;10.70;;;;;;;;;;10340005;28;20068;-59
2021/05/02 07:25:13;;;;;;;26.25;7.88;;;;;;;;;;10341649;28;20441;-59
2021/05/02 07:30:10;;;;;;;17.35;6.88;;;;;;;;;;10338861;28;20078;-59
2021/05/02 07:35:08;;;;;;;25.42;11.68;;;;;;;;;;10339756;28;20332;-59
2021/05/02 07:40:08;;;;;;;17.67;10.00;;;;;;;;;;10341003;28;20072;-59
2021/05/02 07:45:06;;;;;;;23.10;14.55;;;;;;;;;;10339300;28;20122;-57
2021/05/02 07:50:04;;;;;;;16.50;6.97;;;;;;;;;;10339896;28;20072;-58
2021/05/02 07:55:01;;;;;;;17.40;8.52;;;;;;;;;;10339743;28;20051;-58
2021/05/02 08:00:01;;;;;;;14.27;6.70;;;;;;;;;;10339993;28;20517;-58
2021/05/02 08:04:58;;;;;;;18.15;9.48;;;;;;;;;;10339779;28;20520;-58
2021/05/02 08:09:55;;;;;;;14.30;7.18;;;;;;;;;;10338221;28;20040;-59
2021/05/02 08:14:53;;;;;;;15.70;6.05;;;;;;;;;;10337741;28;20036;-59
2021/05/02 08:19:51;;;;;;;11.10;5.40;;;;;;;;;;10339439;28;20076;-59
2021/05/02 08:24:49;;;;;;;13.90;4.75;;;;;;;;;;10337735;28;20093;-58
2021/05/02 08:29:46;;;;;;;15.02;7.97;;;;;;;;;;10338320;28;20072;-58
2021/05/02 08:34:44;;;;;;;15.05;6.97;;;;;;;;;;10337996;28;20071;-58
2021/05/02 08:39:42;;;;;;;13.02;5.28;;;;;;;;;;10336657;28;20064;-58
2021/05/02 08:44:40;;;;;;;9.23;4.68;;;;;;;;;;10338618;28;20043;-58
2021/05/02 08:49:38;;;;;;;13.88;4.70;;;;;;;;;;10335944;28;20071;-58
2021/05/02 08:54:35;;;;;;;9.45;5.10;;;;;;;;;;10337973;28;20504;-59
2021/05/02 08:59:34;;;;;;;9.82;3.85;;;;;;;;;;10333533;28;20090;-58
2021/05/02 09:04:31;;;;;;;7.72;3.78;;;;;;;;;;10332805;28;20109;-59
2021/05/02 09:09:42;;;;;;;10.35;5.72;;;;;;;;;;10329462;28;20524;-59
2021/05/02 09:14:41;;;;;;;9.95;5.60;;;;;;;;;;10331652;28;20068;-59
2021/05/02 09:19:45;;;;;;;9.85;3.92;;;;;;;;;;10333579;28;20076;-59
2021/05/02 09:24:42;;;;;;;9.07;3.45;;;;;;;;;;10330955;28;20072;-59
2021/05/02 09:29:42;;;;;;;9.98;5.72;;;;;;;;;;10333394;28;20066;-59
2021/05/02 09:34:47;;;;;;;7.93;3.17;;;;;;;;;;10331232;28;20071;-59
2021/05/02 09:39:47;;;;;;;9.63;5.03;;;;;;;;;;10333512;28;20064;-59
2021/05/02 09:44:46;;;;;;;10.75;5.43;;;;;;;;;;10334979;28;20044;-59
2021/05/02 09:50:01;;;;;;;10.23;5.95;;;;;;;;;;10334945;28;20037;-59
2021/05/02 09:54:58;;;;;;;;;;;;;;;;;;10343740;28;20060;-59
2021/05/02 09:59:56;;;;;;;13.85;4.72;;;;;;;;;;10344434;28;20353;-59
2021/05/02 10:04:56;;;;;;;16.75;7.13;;;;;;;;;;10342647;28;20063;-59
2021/05/02 10:09:54;;;;;;;10.23;5.35;;;;;;;;;;10343826;28;20040;-59
2021/05/02 10:14:51;;;;;;;12.77;4.47;;;;;;;;;;10340543;28;20051;-59
2021/05/02 10:19:49;;;;;;;12.45;4.40;;;;;;;;;;10341641;28;20075;-59
2021/05/02 10:24:47;;;;;;;14.77;5.75;;;;;;;;;;10343341;28;20028;-59
2021/05/02 10:29:48;;;;;;;15.13;5.20;;;;;;;;;;10341940;28;20520;-59
2021/05/02 10:34:46;;;;;;;8.45;5.13;;;;;;;;;;10342750;28;20045;-59
2021/05/02 10:39:53;;;;;;;11.75;4.72;;;;;;;;;;10341703;28;20080;-58
2021/05/02 10:44:50;;;;;;;14.35;4.45;;;;;;;;;;10342776;28;20040;-59
2021/05/02 10:49:53;;;;;;;14.13;6.07;;;;;;;;;;10340888;28;20425;-60
2021/05/02 10:54:51;;;;;;;13.63;5.18;;;;;;;;;;10342342;28;20041;-59
2021/05/02 11:00:06;;;;;;;13.55;3.55;;;;;;;;;;10339181;28;20090;-58
2021/05/02 11:05:03;;;;;;;11.23;4.20;;;;;;;;;;10340825;28;20064;-58
2021/05/02 11:10:01;;;;;;;16.08;5.30;;;;;;;;;;10341605;28;20082;-59
2021/05/02 11:14:59;;;;;;;16.17;4.82;;;;;;;;;;10339662;28;20040;-58
2021/05/02 11:20:01;;;;;;;12.48;5.32;;;;;;;;;;10339972;28;20473;-59
2021/05/02 11:25:01;;;;;;;14.67;3.73;;;;;;;;;;10320531;28;20068;-59
2021/05/02 11:30:18;;;;;;;15.57;4.82;;;;;;;;;;10339149;28;20047;-59
2021/05/02 11:35:17;;;;;;;16.75;4.68;;;;;;;;;;10340818;28;20497;-59
2021/05/02 11:40:32;;;;;;;8.02;4.03;;;;;;;;;;10339123;28;20119;-60
2021/05/02 11:45:31;;;;;;;18.27;4.05;;;;;;;;;;10331430;28;20076;-60
2021/05/02 11:50:37;;;;;;;7.82;3.50;;;;;;;;;;10340251;28;20040;-59
2021/05/02 11:55:36;;;;;;;15.23;5.22;;;;;;;;;;10339753;28;20476;-59
2021/05/02 12:00:38;;;;;;;12.95;4.55;;;;;;;;;;10339532;28;20056;-60
2021/05/02 12:05:47;;;;;;;15.05;3.92;;;;;;;;;;10339332;28;20464;-59
2021/05/02 12:10:45;;;;;;;15.38;5.35;;;;;;;;;;10318292;28;20075;-58
2021/05/02 12:15:42;;;;;;;18.40;4.85;;;;;;;;;;10323025;28;20421;-59
2021/05/02 12:20:39;;;;;;;20.58;5.43;;;;;;;;;;10336329;28;20040;-59
2021/05/02 12:25:40;;;;;;;17.50;4.38;;;;;;;;;;10334391;28;20522;-60
2021/05/02 12:30:37;;;;;;;19.05;5.25;;;;;;;;;;10338455;28;20120;-60
2021/05/02 12:35:34;;;;;;;19.58;5.03;;;;;;;;;;10337633;28;20078;-59
2021/05/02 12:40:32;;;;;;;22.27;4.68;;;;;;;;;;10337112;28;20075;-60
2021/05/02 12:45:40;;;;;;;11.27;3.85;;;;;;;;;;10338254;28;20040;-60
2021/05/02 12:50:39;;;;;;;14.13;4.40;;;;;;;;;;10337266;28;20071;-59
2021/05/02 12:55:36;;;;;;;12.90;3.53;;;;;;;;;;10337518;28;20177;-59
2021/05/02 13:00:36;;;;;;;10.75;3.63;;;;;;;;;;10336898;28;20072;-59
2021/05/02 13:05:35;;;;;;;15.13;5.13;;;;;;;;;;10337024;28;20059;-59
2021/05/02 13:10:32;;;;;;;17.90;4.88;;;;;;;;;;10336327;28;20060;-59
2021/05/02 13:15:33;;;;;;;16.50;4.47;;;;;;;;;;10338007;28;20041;-60
2021/05/02 13:20:46;;;;;;;21.10;5.75;;;;;;;;;;10335961;28;20071;-59
2021/05/02 13:25:44;;;;;;;11.88;4.35;;;;;;;;;;10335116;28;20048;-60
2021/05/02 13:30:41;;;;;;;24.45;5.65;;;;;;;;;;10336784;28;20071;-60
2021/05/02 13:35:39;;;;;;;11.48;3.90;;;;;;;;;;10335503;28;20552;-60
2021/05/02 13:40:38;;;;;;;11.05;3.92;;;;;;;;;;10337088;28;20438;-60
2021/05/02 13:45:41;;;;;;;14.25;4.88;;;;;;;;;;10335481;28;20110;-60
2021/05/02 13:50:41;;;;;;;17.55;4.85;;;;;;;;;;10316268;28;20048;-59
2021/05/02 13:55:38;;;;;;;20.48;4.85;;;;;;;;;;10315681;28;20071;-59
2021/05/02 14:00:37;;;;;;;19.13;4.60;;;;;;;;;;10315159;28;20122;-59
2021/05/02 14:05:34;;;;;;;17.23;5.25;;;;;;;;;;10315946;28;20234;-59
2021/05/02 14:10:32;;;;;;;23.63;5.70;;;;;;;;;;10319195;28;20033;-58
2021/05/02 14:15:29;;;;;;;13.32;4.32;;;;;;;;;;10335504;28;20067;-58
2021/05/02 14:20:27;;;;;;;15.65;4.95;;;;;;;;;;10335681;28;20083;-58
2021/05/02 14:25:25;;;;;;;19.65;5.50;;;;;;;;;;10336086;28;20809;-58
2021/05/02 14:30:22;;;;;;;20.38;4.35;;;;;;;;;;10334708;28;20706;-58
2021/05/02 14:35:20;;;;;;;23.67;4.50;;;;;;;;;;10336996;28;20059;-59
2021/05/02 14:40:19;;;;;;;20.58;4.45;;;;;;;;;;10339863;28;20421;-59
2021/05/02 14:45:18;;;;;;;17.10;4.60;;;;;;;;;;10339424;28;20055;-58
2021/05/02 14:50:15;;;;;;;29.25;4.40;;;;;;;;;;10341658;28;20059;-58
2021/05/02 14:55:14;;;;;;;17.52;4.35;;;;;;;;;;10343170;28;20059;-59
2021/05/02 15:00:14;;;;;;;21.25;5.18;;;;;;;;;;10341788;28;20083;-58
2021/05/02 15:05:12;;;;;;;35.85;18.15;;;;;;;;;;10341682;28;20095;-59
2021/05/02 15:10:10;;;;;;;15.65;5.50;;;;;;;;;;10341828;28;20067;-58
2021/05/02 15:15:09;;;;;;;16.10;4.88;;;;;;;;;;10340931;28;20060;-58
2021/05/02 15:20:08;;;;;;;20.58;5.93;;;;;;;;;;10341982;28;20222;-59
2021/05/02 15:25:06;;;;;;;14.00;5.13;;;;;;;;;;10340349;28;20516;-58
2021/05/02 15:30:04;;;;;;;23.73;7.10;;;;;;;;;;10342011;28;20064;-58
2021/05/02 15:35:02;;;;;;;16.63;4.43;;;;;;;;;;10338995;28;20040;-58
2021/05/02 15:40:02;;;;;;;11.93;5.10;;;;;;;;;;10341275;28;20068;-59
2021/05/02 15:45:00;;;;;;;21.77;7.40;;;;;;;;;;10339679;28;20066;-59
2021/05/02 15:49:57;;;;;;;21.63;7.18;;;;;;;;;;10338912;28;20044;-58
2021/05/02 15:54:58;;;;;;;33.28;10.48;;;;;;;;;;10340108;28;20036;-58
2021/05/02 15:59:57;;;;;;;14.57;5.30;;;;;;;;;;10339411;28;20084;-59
2021/05/02 16:04:54;;;;;;;21.15;6.45;;;;;;;;;;10339772;28;20036;-59
2021/05/02 16:09:53;;;;;;;23.23;7.95;;;;;;;;;;10338509;28;20044;-59
2021/05/02 16:14:51;;;;;;;16.70;5.97;;;;;;;;;;10340215;28;20055;-59
2021/05/02 16:19:49;;;;;;;20.90;6.82;;;;;;;;;;10337696;28;20059;-59
2021/05/02 16:24:46;;;;;;;21.55;7.88;;;;;;;;;;10339622;28;20043;-59
2021/05/02 16:29:44;;;;;;;21.17;5.80;;;;;;;;;;10337975;28;20460;-59
2021/05/02 16:34:41;;;;;;;18.00;4.57;;;;;;;;;;10338485;28;20052;-58
2021/05/02 16:39:40;;;;;;;21.55;5.82;;;;;;;;;;10338331;28;20464;-59
2021/05/02 16:44:37;;;;;;;20.60;5.80;;;;;;;;;;10336050;28;20509;-59
2021/05/02 16:49:36;;;;;;;25.35;5.78;;;;;;;;;;10338578;28;20041;-58
2021/05/02 16:54:33;;;;;;;29.45;8.07;;;;;;;;;;10336464;28;20032;-59
2021/05/02 16:59:31;;;;;;;19.50;5.65;;;;;;;;;;10338025;28;20593;-59
2021/05/02 17:04:29;;;;;;;19.25;7.15;;;;;;;;;;10336326;28;20036;-59
2021/05/02 17:09:26;;;;;;;28.08;8.85;;;;;;;;;;10337136;28;20063;-59
2021/05/02 17:14:24;;;;;;;19.90;5.78;;;;;;;;;;10337261;28;20074;-59
2021/05/02 17:19:22;;;;;;;26.17;5.78;;;;;;;;;;10335993;28;20524;-59
2021/05/02 17:24:19;;;;;;;22.15;6.60;;;;;;;;;;10337676;28;20043;-59
2021/05/02 17:29:18;;;;;;;28.42;8.63;;;;;;;;;;10334860;28;20052;-59
2021/05/02 17:34:16;;;;;;;15.50;5.47;;;;;;;;;;10335273;28;20048;-60
2021/05/02 17:39:14;;;;;;;23.23;6.05;;;;;;;;;;10337024;28;20147;-59
2021/05/02 17:44:11;;;;;;;25.15;6.63;;;;;;;;;;10336108;28;20047;-59
2021/05/02 17:49:09;;;;;;;21.63;5.45;;;;;;;;;;10335782;28;20045;-58
2021/05/02 17:54:07;;;;;;;23.80;8.10;;;;;;;;;;10336353;28;20559;-59
2021/05/02 17:59:10;;;;;;;19.92;6.75;;;;;;;;;;10334699;28;20096;-58
2021/05/02 18:04:08;;;;;;;25.23;7.28;;;;;;;;;;10336352;28;20052;-59
2021/05/02 18:09:06;;;;;;;16.10;5.38;;;;;;;;;;10334426;28;20063;-59
2021/05/02 18:14:03;;;;;;;24.15;5.03;;;;;;;;;;10340458;28;20037;-59
2021/05/02 18:19:02;;;;;;;23.92;6.38;;;;;;;;;;10344446;28;20068;-59
2021/05/02 18:23:59;;;;;;;27.73;7.25;;;;;;;;;;10342723;28;20071;-59
2021/05/02 18:28:56;;;;;;;14.25;6.70;;;;;;;;;;10342973;28;20094;-59
2021/05/02 18:33:54;;;;;;;17.73;6.10;;;;;;;;;;10342671;28;20060;-59
2021/05/02 18:38:52;;;;;;;22.33;6.00;;;;;;;;;;10342139;28;20068;-59
2021/05/02 18:43:50;;;;;;;23.48;5.75;;;;;;;;;;10341663;28;20055;-59
2021/05/02 18:48:47;;;;;;;21.00;5.05;;;;;;;;;;10341391;28;20036;-59
2021/05/02 18:53:45;;;;;;;20.55;4.72;;;;;;;;;;10343165;28;20040;-58
2021/05/02 18:58:43;;;;;;;18.50;5.38;;;;;;;;;;10341036;28;20098;-59
2021/05/02 19:03:41;;;;;;;12.93;4.70;;;;;;;;;;10341820;28;20041;-60
2021/05/02 19:08:38;;;;;;;15.57;4.93;;;;;;;;;;10341503;28;20075;-60
2021/05/02 19:13:35;;;;;;;22.45;5.57;;;;;;;;;;10337681;28;20528;-59
2021/05/02 19:18:34;;;;;;;18.58;4.72;;;;;;;;;;10341626;28;20071;-59
2021/05/02 19:23:31;;;;;;;30.02;5.55;;;;;;;;;;10338833;28;20521;-59
2021/05/02 19:28:29;;;;;;;15.05;4.50;;;;;;;;;;10338634;28;20040;-59
2021/05/02 19:33:26;;;;;;;12.52;4.28;;;;;;;;;;10341114;28;20063;-59
2021/05/02 19:38:25;;;;;;;17.67;5.47;;;;;;;;;;10339627;28;20072;-59
2021/05/02 19:43:22;;;;;;;20.45;4.40;;;;;;;;;;10338639;28;20055;-59
2021/05/02 19:48:19;;;;;;;19.00;5.18;;;;;;;;;;10338555;28;20043;-60
2021/05/02 19:53:17;;;;;;;18.23;5.72;;;;;;;;;;10338604;28;20047;-59
2021/05/02 19:58:15;;;;;;;14.18;4.35;;;;;;;;;;10340365;28;20072;-59
2021/05/02 20:03:13;;;;;;;14.98;4.57;;;;;;;;;;10338295;28;20515;-59
2021/05/02 20:08:10;;;;;;;23.90;5.80;;;;;;;;;;10336369;28;20075;-59
2021/05/02 20:13:08;;;;;;;17.75;4.70;;;;;;;;;;10334061;28;20632;-58
2021/05/02 20:18:06;;;;;;;16.23;4.28;;;;;;;;;;10335811;28;20072;-58
2021/05/02 20:23:04;;;;;;;13.82;4.10;;;;;;;;;;10336563;28;20083;-58
2021/05/02 20:28:01;;;;;;;19.27;4.25;;;;;;;;;;10339257;28;20041;-58
2021/05/02 20:32:58;;;;;;;16.83;4.80;;;;;;;;;;10336080;28;20075;-55
2021/05/02 20:37:57;;;;;;;17.05;4.68;;;;;;;;;;10332302;28;20082;-58
2021/05/02 20:42:55;;;;;;;20.38;5.03;;;;;;;;;;10334825;27;20067;-59
2021/05/02 20:47:53;;;;;;;12.35;4.07;;;;;;;;;;10337789;28;20080;-59
2021/05/02 20:52:51;;;;;;;13.63;4.13;;;;;;;;;;10336876;28;20036;-58
2021/05/02 20:57:49;;;;;;;13.50;4.45;;;;;;;;;;10336161;28;20084;-58
2021/05/02 21:02:46;;;;;;;18.92;4.40;;;;;;;;;;10337242;28;20079;-58
2021/05/02 21:07:44;;;;;;;14.77;4.97;;;;;;;;;;10336052;28;20068;-59
2021/05/02 21:12:41;;;;;;;15.18;4.72;;;;;;;;;;10335697;28;20090;-59
2021/05/02 21:17:40;;;;;;;16.67;5.00;;;;;;;;;;10337991;28;20044;-59
2021/05/02 21:22:38;;;;;;;20.90;4.82;;;;;;;;;;10336265;28;20475;-59
2021/05/02 21:27:35;;;;;;;16.27;4.72;;;;;;;;;;10336350;28;20063;-60
2021/05/02 21:32:33;;;;;;;13.63;4.45;;;;;;;;;;10336464;28;20044;-59
2021/05/02 21:37:31;;;;;;;17.33;4.57;;;;;;;;;;10332884;28;20044;-59
2021/05/02 21:42:28;;;;;;;18.13;4.03;;;;;;;;;;10335910;28;20053;-59
2021/05/02 21:47:26;;;;;;;13.98;4.65;;;;;;;;;;10338168;28;20064;-59
2021/05/02 21:52:24;;;;;;;21.73;4.75;;;;;;;;;;10343303;28;20452;-59
2021/05/02 21:57:24;;;;;;;15.00;4.25;;;;;;;;;;10344772;28;20446;-59
2021/05/02 22:02:21;;;;;;;15.98;4.95;;;;;;;;;;10343271;28;20071;-59
2021/05/02 22:07:19;;;;;;;16.92;4.45;;;;;;;;;;10344247;28;20091;-59
2021/05/02 22:12:16;;;;;;;11.35;4.05;;;;;;;;;;10339717;28;20063;-59
2021/05/02 22:17:14;;;;;;;20.40;4.40;;;;;;;;;;10330821;28;20067;-59
2021/05/02 22:22:13;;;;;;;20.05;5.75;;;;;;;;;;10339430;28;20082;-59
2021/05/02 22:27:10;;;;;;;21.85;4.32;;;;;;;;;;10336591;28;20485;-59
2021/05/02 22:32:08;;;;;;;28.52;5.00;;;;;;;;;;10341671;28;20051;-59
2021/05/02 22:37:07;;;;;;;19.40;4.07;;;;;;;;;;10341111;28;20044;-59
2021/05/02 22:42:05;;;;;;;16.50;4.65;;;;;;;;;;10341105;28;20500;-59
2021/05/02 22:47:03;;;;;;;13.63;3.97;;;;;;;;;;10341976;28;20040;-59
2021/05/02 22:52:00;;;;;;;21.45;5.85;;;;;;;;;;10341765;28;20604;-59
2021/05/02 22:56:59;;;;;;;21.33;4.63;;;;;;;;;;10341576;28;20083;-59
2021/05/02 23:01:57;;;;;;;15.07;4.38;;;;;;;;;;10338109;28;20500;-58
2021/05/02 23:06:54;;;;;;;15.52;5.00;;;;;;;;;;10338148;28;20071;-59
2021/05/02 23:11:52;;;;;;;17.48;4.57;;;;;;;;;;10340385;28;20044;-59
2021/05/02 23:16:50;;;;;;;18.52;5.18;;;;;;;;;;10340897;28;20052;-59
2021/05/02 23:21:47;;;;;;;12.38;4.25;;;;;;;;;;10335909;28;20072;-59
2021/05/02 23:26:44;;;;;;;19.42;4.50;;;;;;;;;;10338464;28;20395;-59
2021/05/02 23:31:42;;;;;;;24.75;5.30;;;;;;;;;;10335459;28;20060;-58
2021/05/02 23:36:41;;;;;;;12.40;4.53;;;;;;;;;;10341020;28;20064;-59
2021/05/02 23:41:39;;;;;;;17.70;4.95;;;;;;;;;;10339239;28;20079;-59
2021/05/02 23:46:36;;;;;;;17.77;4.40;;;;;;;;;;10341084;28;20548;-59
2021/05/02 23:51:33;;;;;;;13.32;4.22;;;;;;;;;;10341157;28;20033;-59
2021/05/02 23:56:32;;;;;;;15.15;4.95;;;;;;;;;;10339062;28;20036;-59
